Time;durP1;ratioP1;P1;durP2;ratioP2;P2;SDS_P1;SDS_P2;PMS_P1;PMS_P2;Temp;Humidity;BMP_temperature;BMP_pressure;BME280_temperature;BME280_humidity;BME280_pressure;Samples;Min_cycle;Max_cycle;Signal;HPM_P1;HPM_P2
2023/06/05 06:01:16;;;;;;;;;;;;;;;18.15;47.84;100882.37;109625;1282;22457;-45
2023/06/05 06:03:44;;;;;;;;;;;;;;;18.30;48.20;100879.91;109701;1282;22887;-43
2023/06/05 06:06:12;;;;;;;;;;;;;;;18.46;46.86;100875.31;109747;1283;22453;-43
2023/06/05 06:08:39;;;;;;;;;;;;;;;18.57;45.87;100876.99;109055;1278;26504;-47
2023/06/05 06:11:07;;;;;;;;;;;;;;;18.64;44.72;100876.48;109722;1283;22969;-47
2023/06/05 06:13:35;;;;;;;;;;;;;;;18.74;44.09;100877.86;109722;1279;23265;-45
2023/06/05 06:16:03;;;;;;;;;;;;;;;18.86;43.88;100875.79;109760;1283;23159;-46
2023/06/05 06:18:30;;;;;;;;;;;;;;;19.01;43.19;100873.65;109629;1277;22451;-44
2023/06/05 06:20:58;;;;;;;;;;;;;;;19.17;42.66;100876.42;109621;1278;22407;-45
2023/06/05 06:23:26;;;;;;;;;;;;;;;19.29;40.09;100875.04;109742;1277;22470;-44
2023/06/05 06:25:53;;;;;;;;;;;;;;;19.40;38.94;100873.14;108870;1275;22562;-44
2023/06/05 06:28:21;;;;;;;;;;;;;;;19.47;37.79;100876.31;108559;1282;22482;-44
2023/06/05 06:30:49;;;;;;;;;;;;;;;19.55;38.06;100876.44;109476;1276;22467;-48
2023/06/05 06:33:18;;;;;;;;;;;;;;;19.64;38.65;100877.30;108525;1282;22593;-47
2023/06/05 06:35:46;;;;;;;;;;;;;;;19.74;38.16;100874.16;108337;1283;22485;-47
2023/06/05 06:38:13;;;;;;;;;;;;;;;19.83;37.92;100869.48;109645;1277;23188;-47
2023/06/05 06:40:41;;;;;;;;;;;;;;;19.87;37.12;100872.73;109625;1277;22445;-44
2023/06/05 06:43:08;;;;;;;;;;;;;;;19.87;37.14;100869.88;109627;1279;22985;-47
2023/06/05 06:45:40;;;;;;;;;;;;;;;19.92;37.12;100866.75;109569;1283;22429;-47
2023/06/05 06:48:08;;;;;;;;;;;;;;;20.01;37.12;100869.29;109606;1278;22643;-47
2023/06/05 06:50:36;;;;;;;;;;;;;;;20.05;36.92;100873.25;109635;1278;23327;-47
2023/06/05 06:53:03;;;;;;;;;;;;;;;20.08;36.04;100872.65;109635;1280;22477;-46
2023/06/05 06:55:33;;;;;;;;;;;;;;;20.09;36.12;100873.50;109569;1277;22504;-47
2023/06/05 06:58:08;;;;;;;;;;;;;;;20.16;36.59;100871.86;109563;1278;22807;-47
2023/06/05 07:00:36;;;;;;;;;;;;;;;20.28;34.99;100872.20;109492;1275;22523;-45
2023/06/05 07:03:03;;;;;;;;;;;;;;;20.35;33.74;100872.70;109751;1275;22449;-46
2023/06/05 07:05:34;;;;;;;;;;;;;;;20.40;33.51;100869.35;109459;1275;23383;-44
2023/06/05 07:08:05;;;;;;;;;;;;;;;20.51;34.00;100865.84;109820;1275;22500;-46
2023/06/05 07:10:32;;;;;;;;;;;;;;;20.60;33.68;100865.73;109292;1281;22584;-43
2023/06/05 07:13:00;;;;;;;;;;;;;;;20.62;33.38;100867.78;108632;1275;22531;-47
2023/06/05 07:15:30;;;;;;;;;;;;;;;20.65;33.85;100862.90;109482;1275;22485;-47
2023/06/05 07:17:58;;;;;;;;;;;;;;;20.76;33.46;100865.91;109764;1282;22441;-46
2023/06/05 07:20:25;;;;;;;;;;;;;;;20.83;33.59;100861.59;109708;1275;22444;-49
2023/06/05 07:22:53;;;;;;;;;;;;;;;20.88;33.66;100865.33;109667;1282;22542;-47
2023/06/05 07:25:24;;;;;;;;;;;;;;;20.96;33.88;100864.52;109627;1278;22422;-48
2023/06/05 07:27:51;;;;;;;;;;;;;;;21.07;33.85;100863.44;109592;1275;22469;-47
2023/06/05 07:30:19;;;;;;;;;;;;;;;21.16;33.91;100868.27;109436;1276;23234;-44
2023/06/05 07:32:49;;;;;;;;;;;;;;;21.29;33.08;100864.98;109760;1281;22450;-45
2023/06/05 07:35:17;;;;;;;;;;;;;;;21.41;33.05;100869.20;109254;1281;22590;-46
2023/06/05 07:37:45;;;;;;;;;;;;;;;21.40;32.16;100871.90;109785;1275;23167;-46
2023/06/05 07:40:12;;;;;;;;;;;;;;;21.35;32.01;100868.36;109558;1275;26457;-45
2023/06/05 07:42:40;;;;;;;;;;;;;;;21.32;32.04;100866.48;109146;1275;23859;-46
2023/06/05 07:45:08;;;;;;;;;;;;;;;21.40;32.48;100860.02;109856;1275;22905;-45
2023/06/05 07:47:35;;;;;;;;;;;;;;;21.58;32.19;100858.12;109801;1275;23261;-44
2023/06/05 07:50:05;;;;;;;;;;;;;;;21.78;32.10;100855.23;109398;1275;22473;-47
2023/06/05 07:52:33;;;;;;;;;;;;;;;21.89;31.97;100854.83;108772;1275;24179;-44
2023/06/05 07:55:00;;;;;;;;;;;;;;;21.92;31.42;100857.04;109747;1278;22445;-45
2023/06/05 07:57:28;;;;;;;;;;;;;;;21.87;30.93;100853.48;109834;1278;22451;-45
2023/06/05 07:59:56;;;;;;;;;;;;;;;21.85;31.37;100856.60;109368;1282;22622;-44
2023/06/05 08:02:23;;;;;;;;;;;;;;;21.93;31.28;100850.96;109504;1279;22479;-48
2023/06/05 08:04:51;;;;;;;;;;;;;;;21.93;30.92;100852.01;109814;1276;22426;-43
2023/06/05 08:07:19;;;;;;;;;;;;;;;21.86;31.26;100856.17;109815;1275;22455;-42
2023/06/05 08:09:46;;;;;;;;;;;;;;;21.92;30.78;100855.80;109698;1281;23374;-42
2023/06/05 08:12:14;;;;;;;;;;;;;;;22.05;31.09;100851.38;109786;1283;22870;-45
2023/06/05 08:14:41;;;;;;;;;;;;;;;22.19;30.51;100854.95;109731;1283;22458;-47
2023/06/05 08:17:09;;;;;;;;;;;;;;;22.21;29.65;100855.59;109664;1281;22415;-45
2023/06/05 08:19:36;;;;;;;;;;;;;;;22.08;30.08;100854.45;109636;1283;22514;-46
2023/06/05 08:22:04;;;;;;;;;;;;;;;22.02;30.13;100854.65;109483;1283;24805;-45
2023/06/05 08:24:32;;;;;;;;;;;;;;;22.10;29.83;100860.61;109330;1282;23322;-44
2023/06/05 08:27:00;;;;;;;;;;;;;;;22.09;28.62;100854.96;109448;1276;22625;-46
2023/06/05 08:29:36;;;;;;;;;;;;;;;22.11;28.71;100859.18;108776;1275;22543;-45
2023/06/05 08:32:05;;;;;;;;;;;;;;;22.18;28.61;100853.39;109638;1278;22421;-45
2023/06/05 08:34:33;;;;;;;;;;;;;;;22.21;28.78;100849.16;109664;1282;23303;-44
2023/06/05 08:37:00;;;;;;;;;;;;;;;22.08;28.36;100845.41;109776;1276;22443;-45
2023/06/05 08:39:31;;;;;;;;;;;;;;;21.83;28.74;100844.38;109620;1281;22467;-44
2023/06/05 08:42:00;;;;;;;;;;;;;;;21.58;28.43;100845.34;109756;1278;23213;-44
2023/06/05 08:44:28;;;;;;;;;;;;;;;21.32;29.01;100849.30;109607;1282;23621;-47
2023/06/05 08:47:04;;;;;;;;;;;;;;;21.24;29.20;100850.44;109665;1283;22902;-44
2023/06/05 08:49:36;;;;;;;;;;;;;;;21.40;29.69;100849.70;109706;1276;22446;-47
2023/06/05 08:52:05;;;;;;;;;;;;;;;21.64;29.05;100848.85;109555;1283;22491;-46
2023/06/05 08:54:36;;;;;;;;;;;;;;;21.85;28.05;100844.14;109681;1275;22852;-45
2023/06/05 08:57:05;;;;;;;;;;;;;;;21.97;27.70;100836.95;109640;1278;22398;-43
2023/06/05 08:59:32;;;;;;;;;;;;;;;22.09;28.18;100831.70;109655;1275;22513;-44
2023/06/05 09:02:00;;;;;;;;;;;;;;;22.20;27.63;100835.75;109649;1278;22454;-46
2023/06/05 09:04:30;;;;;;;;;;;;;;;22.32;27.94;100834.88;109662;1275;22507;-44
2023/06/05 09:06:58;;;;;;;;;;;;;;;22.52;28.09;100833.02;109673;1282;23144;-47
2023/06/05 09:09:26;;;;;;;;;;;;;;;22.72;27.66;100832.16;109645;1278;22445;-45
2023/06/05 09:12:08;;;;;;;;;;;;;;;22.87;27.18;100831.03;109602;1282;22439;-47
2023/06/05 09:14:36;;;;;;;;;;;;;;;23.06;27.16;100824.16;109757;1276;22453;-47
2023/06/05 09:17:05;;;;;;;;;;;;;;;23.23;26.60;100828.05;109681;1282;23186;-47
2023/06/05 09:19:40;;;;;;;;;;;;;;;23.24;26.10;100824.82;109641;1275;22445;-46
2023/06/05 09:22:08;;;;;;;;;;;;;;;23.13;25.81;100826.02;109612;1282;23337;-46
2023/06/05 09:24:41;;;;;;;;;;;;;;;23.03;25.50;100830.18;109644;1275;23292;-44
2023/06/05 09:27:17;;;;;;;;;;;;;;;22.95;25.05;100825.70;109684;1277;22968;-44
2023/06/05 09:29:45;;;;;;;;;;;;;;;22.98;25.49;100822.04;109679;1275;22442;-43
2023/06/05 09:32:17;;;;;;;;;;;;;;;23.12;25.48;100821.23;108380;1276;22514;-46
2023/06/05 09:34:45;;;;;;;;;;;;;;;23.25;25.59;100819.27;109652;1275;22469;-44
2023/06/05 09:37:13;;;;;;;;;;;;;;;23.24;25.26;100822.14;109633;1275;22430;-44
2023/06/05 09:39:43;;;;;;;;;;;;;;;23.18;25.60;100817.75;109790;1275;22866;-44
2023/06/05 09:42:11;;;;;;;;;;;;;;;23.08;26.13;100816.95;109731;1277;22412;-44
2023/06/05 09:44:38;;;;;;;;;;;;;;;22.92;26.91;100818.38;109762;1275;22492;-44
2023/06/05 09:47:08;;;;;;;;;;;;;;;22.83;27.07;100817.13;109764;1275;22610;-47
2023/06/05 09:49:38;;;;;;;;;;;;;;;22.89;26.94;100812.64;109735;1275;22451;-44
2023/06/05 09:52:07;;;;;;;;;;;;;;;23.04;26.71;100805.58;109796;1275;22447;-44
2023/06/05 09:54:35;;;;;;;;;;;;;;;23.22;26.44;100803.73;109854;1277;22485;-44
2023/06/05 09:57:04;;;;;;;;;;;;;;;23.40;26.07;100795.09;109823;1275;22461;-44
2023/06/05 09:59:32;;;;;;;;;;;;;;;23.57;25.95;100798.23;109808;1275;22969;-44
2023/06/05 10:02:01;;;;;;;;;;;;;;;23.70;25.99;100796.41;109708;1277;22444;-44
2023/06/05 10:04:28;;;;;;;;;;;;;;;23.69;25.53;100800.38;107999;1280;22516;-46
2023/06/05 10:06:59;;;;;;;;;;;;;;;23.49;25.57;100800.20;109317;1277;22515;-47
2023/06/05 10:09:26;;;;;;;;;;;;;;;23.25;25.30;100802.16;108556;1280;22992;-44
2023/06/05 10:11:54;;;;;;;;;;;;;;;23.03;25.32;100803.82;108651;1279;24285;-44
2023/06/05 10:14:22;;;;;;;;;;;;;;;22.86;25.96;100801.39;109731;1283;22464;-46
2023/06/05 10:16:51;;;;;;;;;;;;;;;22.78;26.35;100802.58;108396;1283;22503;-46
2023/06/05 10:19:22;;;;;;;;;;;;;;;22.80;26.86;100805.14;109271;1277;22506;-47
2023/06/05 10:21:49;;;;;;;;;;;;;;;22.93;26.37;100802.17;109717;1276;22496;-44
2023/06/05 10:24:19;;;;;;;;;;;;;;;23.08;26.21;100796.00;109274;1277;22562;-45
2023/06/05 10:27:03;;;;;;;;;;;;;;;23.30;25.94;100785.77;108673;1277;23057;-47
2023/06/05 10:29:47;;;;;;;;;;;;;;;23.53;25.65;100783.08;109715;1281;22453;-46
2023/06/05 10:32:19;;;;;;;;;;;;;;;23.78;25.01;100779.48;109801;1282;22450;-44
2023/06/05 10:34:56;;;;;;;;;;;;;;;23.83;24.89;100782.99;109722;1277;22460;-44
2023/06/05 10:37:27;;;;;;;;;;;;;;;23.66;24.52;100773.23;109628;1277;22436;-47
2023/06/05 10:39:54;;;;;;;;;;;;;;;23.67;25.07;100777.50;109206;1277;22530;-44
2023/06/05 10:42:22;;;;;;;;;;;;;;;23.92;25.68;100775.59;109709;1276;22445;-44
2023/06/05 10:44:50;;;;;;;;;;;;;;;24.00;26.02;100775.41;109458;1280;22508;-47
2023/06/05 10:47:30;;;;;;;;;;;;;;;23.99;25.63;100779.02;109705;1283;22448;-47
2023/06/05 10:50:16;;;;;;;;;;;;;;;24.03;25.58;100777.57;109621;1283;23339;-44
2023/06/05 10:52:48;;;;;;;;;;;;;;;24.24;25.47;100763.17;109717;1277;22445;-44
2023/06/05 10:55:15;;;;;;;;;;;;;;;24.56;25.64;100759.45;109655;1280;22437;-46
2023/06/05 10:58:02;;;;;;;;;;;;;;;24.91;24.90;100759.27;109586;1277;22448;-45
2023/06/05 11:00:30;;;;;;;;;;;;;;;25.22;24.07;100757.66;109674;1275;23186;-44
2023/06/05 11:02:57;;;;;;;;;;;;;;;25.36;24.32;100756.16;109743;1275;22451;-45
2023/06/05 11:05:28;;;;;;;;;;;;;;;25.55;23.15;100753.73;109713;1281;22416;-47
2023/06/05 11:08:14;;;;;;;;;;;;;;;25.71;23.35;100756.24;109697;1275;22471;-47
2023/06/05 11:11:01;;;;;;;;;;;;;;;25.65;22.70;100754.20;109750;1279;22437;-44
2023/06/05 11:13:47;;;;;;;;;;;;;;;25.20;22.38;100754.02;109786;1275;22467;-44
2023/06/05 11:16:30;;;;;;;;;;;;;;;24.69;23.01;100747.73;109842;1275;22914;-46
2023/06/05 11:19:16;;;;;;;;;;;;;;;24.57;22.65;100749.08;109870;1276;22462;-44
2023/06/05 11:22:04;;;;;;;;;;;;;;;24.53;22.13;100743.58;109454;1275;22486;-44
2023/06/05 11:24:33;;;;;;;;;;;;;;;24.56;22.15;100746.63;107278;1282;22621;-43
2023/06/05 11:27:03;;;;;;;;;;;;;;;24.65;22.13;100744.55;107826;1275;22585;-48
2023/06/05 11:29:31;;;;;;;;;;;;;;;24.76;22.31;100740.45;107336;1276;25263;-44
2023/06/05 11:31:58;;;;;;;;;;;;;;;24.80;22.62;100740.92;107911;1282;170298;-45
2023/06/05 11:34:29;;;;;;;;;;;;;;;24.72;22.33;100737.63;109373;1282;24236;-45
2023/06/05 11:36:58;;;;;;;;;;;;;;;24.55;22.99;100745.23;107451;1273;22527;-46
2023/06/05 11:39:29;;;;;;;;;;;;;;;24.48;23.13;100744.04;109312;1276;22506;-46
2023/06/05 11:41:57;;;;;;;;;;;;;;;24.46;23.66;100743.73;108549;1281;22493;-44
2023/06/05 11:44:32;;;;;;;;;;;;;;;24.43;23.42;100741.39;107804;1280;22515;-44
2023/06/05 11:46:59;;;;;;;;;;;;;;;24.32;23.15;100741.76;108687;1278;22501;-44
2023/06/05 11:49:27;;;;;;;;;;;;;;;24.23;22.81;100734.51;108678;1280;24254;-44
2023/06/05 11:51:55;;;;;;;;;;;;;;;24.23;23.01;100733.81;107218;1281;22544;-45
2023/06/05 11:54:26;;;;;;;;;;;;;;;24.24;23.23;100736.64;107437;1282;22514;-47
2023/06/05 11:56:58;;;;;;;;;;;;;;;24.30;23.36;100734.86;107568;1281;22534;-46
2023/06/05 11:59:26;;;;;;;;;;;;;;;24.36;22.94;100734.97;106913;1282;22523;-45
2023/06/05 12:01:54;;;;;;;;;;;;;;;24.35;23.38;100737.31;107290;1275;23343;-47
2023/06/05 12:04:22;;;;;;;;;;;;;;;24.26;23.71;100739.77;107338;1282;23886;-45
2023/06/05 12:06:51;;;;;;;;;;;;;;;24.04;23.76;100746.70;106757;1282;22541;-43
2023/06/05 12:09:19;;;;;;;;;;;;;;;23.73;23.45;100746.06;107713;1281;23177;-44
2023/06/05 12:11:46;;;;;;;;;;;;;;;23.57;23.70;100742.31;108224;1280;22524;-43
2023/06/05 12:14:28;;;;;;;;;;;;;;;23.61;23.87;100740.38;109236;1275;22500;-49
2023/06/05 12:16:56;;;;;;;;;;;;;;;23.82;23.89;100732.46;108132;1282;22787;-45
2023/06/05 12:19:26;;;;;;;;;;;;;;;24.04;23.40;100734.42;107268;1281;22536;-44
2023/06/05 12:22:01;;;;;;;;;;;;;;;24.21;23.22;100732.50;107240;1282;22527;-44
2023/06/05 12:24:28;;;;;;;;;;;;;;;24.32;23.31;100736.20;109093;1281;22523;-43
2023/06/05 12:26:58;;;;;;;;;;;;;;;24.37;23.60;100732.80;109898;1282;22420;-46
2023/06/05 12:29:28;;;;;;;;;;;;;;;24.36;23.84;100726.94;109799;1282;22423;-44
2023/06/05 12:31:59;;;;;;;;;;;;;;;24.35;23.71;100728.27;109818;1282;23559;-45
2023/06/05 12:34:41;;;;;;;;;;;;;;;24.29;24.17;100725.13;109881;1278;22430;-44
2023/06/05 12:37:29;;;;;;;;;;;;;;;24.31;24.23;100718.64;109789;1281;22736;-43
2023/06/05 12:39:58;;;;;;;;;;;;;;;24.42;24.50;100720.95;109767;1282;22608;-45
2023/06/05 12:42:26;;;;;;;;;;;;;;;24.58;23.78;100721.02;109853;1282;22499;-44
2023/06/05 12:44:54;;;;;;;;;;;;;;;24.75;22.82;100720.84;109861;1282;22566;-43
2023/06/05 12:47:22;;;;;;;;;;;;;;;24.92;22.72;100723.91;109830;1282;22421;-44
2023/06/05 12:49:50;;;;;;;;;;;;;;;25.14;22.61;100720.61;109865;1282;23126;-47
2023/06/05 12:52:18;;;;;;;;;;;;;;;25.32;22.47;100718.94;109806;1282;22444;-44
2023/06/05 12:54:46;;;;;;;;;;;;;;;25.42;21.88;100715.67;109811;1282;22450;-44
2023/06/05 12:57:13;;;;;;;;;;;;;;;25.50;21.89;100716.69;109836;1282;22955;-45
2023/06/05 12:59:41;;;;;;;;;;;;;;;25.57;21.46;100718.44;109833;1282;22488;-44
2023/06/05 13:02:08;;;;;;;;;;;;;;;25.59;21.79;100708.84;109822;1277;22440;-45
2023/06/05 13:04:36;;;;;;;;;;;;;;;25.70;22.13;100710.73;109777;1276;22446;-46
2023/06/05 13:07:05;;;;;;;;;;;;;;;25.77;21.68;100714.48;108268;1282;25282;-47
2023/06/05 13:09:33;;;;;;;;;;;;;;;25.70;21.32;100700.89;108375;1282;22499;-44
2023/06/05 13:12:01;;;;;;;;;;;;;;;25.66;21.64;100707.90;109828;1281;22420;-45
2023/06/05 13:14:32;;;;;;;;;;;;;;;25.52;21.82;100703.73;109826;1283;22761;-52
2023/06/05 13:16:59;;;;;;;;;;;;;;;25.31;21.62;100706.62;109815;1283;22472;-46
